Songa Opal — V7RO5 — position and weather

sailwx.info

Track history (hours):
 
Tides and Currents Weather Stations Pressure Air Temp Water Temp Dewpoint Dewpoint Depression Visibility Wind Speed Wind Dir Waves Ship Positions

Songa Opal

Last reported at 2016-Jun-27 06:33 UTC. Time now 2016-Jun-29 20:12 UTC.
Position N 31°50' W 080°03'.

Length 148 m; draft 7.6 m.

Type: Ship. MMSI: 538003550.

Date/timePositionNaut miles runAvg speedWind from/ knotsBaromVisibWave heightAir tempDewpointWater temp
2016-Jun-27 06:33N 31°50' W 080°03'2712.7
2016-Jun-27 04:26N 31°57' W 080°34'1011.7
2016-Jun-27 03:33N 31°59' W 080°46'1110.7
2016-Jun-27 02:33N 32°04' W 080°57'8 7.7
2016-Jun-27 01:33N 32°05' W 081°06'1 0.8
2016-Jun-27 00:20N 32°06' W 081°07'0 0.0
2016-Jun-26 23:32N 32°06' W 081°07'0 0.0
2016-Jun-26 22:32N 32°06' W 081°07'0 0.0
2016-Jun-26 21:32N 32°06' W 081°07'0 0.0
2016-Jun-26 20:32N 32°06' W 081°07'0 0.0
2016-Jun-26 19:32N 32°06' W 081°07'0 0.0
2016-Jun-26 18:32N 32°06' W 081°07'0 0.0
2016-Jun-26 17:32N 32°06' W 081°07'0 0.0
2016-Jun-26 16:26N 32°06' W 081°07'0 0.0
2016-Jun-26 15:32N 32°06' W 081°07'0 0.0
2016-Jun-26 14:32N 32°06' W 081°07'0 0.0
2016-Jun-26 13:32N 32°06' W 081°07'0 0.0
2016-Jun-26 12:32N 32°06' W 081°07'0 0.0
2016-Jun-26 11:32N 32°06' W 081°07'0 0.0
2016-Jun-26 10:32N 32°06' W 081°07'0 0.0
2016-Jun-26 09:33N 32°06' W 081°07'0 0.0
2016-Jun-26 08:33N 32°06' W 081°07'3 3.0
2016-Jun-26 07:33N 32°05' W 081°04'9 9.0
2016-Jun-26 06:33N 32°02' W 080°53'1212.1
2016-Jun-26 05:33N 31°58' W 080°40'2813.7
2016-Jun-26 03:29N 32°02' W 080°07'1314.0
2016-Jun-26 02:33N 32°04' W 079°52'1313.4
2016-Jun-26 01:33N 32°09' W 079°37'  
2016-Jun-18 23:31N 46°16' W 072°39'1614.0
2016-Jun-18 22:25N 46°07' W 072°58'1113.4
2016-Jun-18 21:33N 45°60' W 073°11'1414.4
2016-Jun-18 20:33N 45°47' W 073°21'1312.9
2016-Jun-18 19:33N 45°36' W 073°30'11 5.5
2016-Jun-18 17:33N 45°25' W 073°30'4 3.3
2016-Jun-18 16:28N 45°24' W 073°35'6 6.8
2016-Jun-18 15:33N 45°24' W 073°44'8 7.6
2016-Jun-18 14:33N 45°20' W 073°53'3 2.5
2016-Jun-18 13:33N 45°18' W 073°56'3 3.0
2016-Jun-18 12:33N 45°16' W 073°58'1411.1
2016-Jun-18 11:19N 45°13' W 074°17'11511.6
2016-Jun-18 01:25N 44°04' W 076°26'0 0.0
2016-Jun-18 00:34N 44°04' W 076°26'0 0.0
2016-Jun-17 23:34N 44°04' W 076°26'0 0.0
2016-Jun-17 22:34N 44°04' W 076°26'12213.2
2016-Jun-17 13:19N 43°20' W 079°03'912.1
2016-Jun-17 12:33N 43°15' W 079°13'3 2.8
2016-Jun-17 11:33N 43°12' W 079°12'2 2.0
2016-Jun-17 10:33N 43°10' W 079°12'2 1.5
2016-Jun-17 09:28N 43°08' W 079°12'0 0.3
2016-Jun-17 08:33N 43°08' W 079°12'1 0.6
2016-Jun-17 07:33N 43°07' W 079°12'  
Track history (hours):
 
Tides and Currents Weather Stations Pressure Air Temp Water Temp Dewpoint Dewpoint Depression Visibility Wind Speed Wind Dir Waves Ship Positions

Songa Opal

Last reported at 2016-Jun-27 06:33 UTC. Time now 2016-Jun-29 20:12 UTC.
Position N 31°50' W 080°03'.

Length 148 m; draft 7.6 m.

Type: Ship. MMSI: 538003550.

Date/timePositionNaut miles runAvg speedWind from/ knotsBaromVisibWave heightAir tempDewpointWater temp
2016-Jun-27 06:33N 31°50' W 080°03'2712.7
2016-Jun-27 04:26N 31°57' W 080°34'1011.7
2016-Jun-27 03:33N 31°59' W 080°46'1110.7
2016-Jun-27 02:33N 32°04' W 080°57'8 7.7
2016-Jun-27 01:33N 32°05' W 081°06'1 0.8
2016-Jun-27 00:20N 32°06' W 081°07'0 0.0
2016-Jun-26 23:32N 32°06' W 081°07'0 0.0
2016-Jun-26 22:32N 32°06' W 081°07'0 0.0
2016-Jun-26 21:32N 32°06' W 081°07'0 0.0
2016-Jun-26 20:32N 32°06' W 081°07'0 0.0
2016-Jun-26 19:32N 32°06' W 081°07'0 0.0
2016-Jun-26 18:32N 32°06' W 081°07'0 0.0
2016-Jun-26 17:32N 32°06' W 081°07'0 0.0
2016-Jun-26 16:26N 32°06' W 081°07'0 0.0
2016-Jun-26 15:32N 32°06' W 081°07'0 0.0
2016-Jun-26 14:32N 32°06' W 081°07'0 0.0
2016-Jun-26 13:32N 32°06' W 081°07'0 0.0
2016-Jun-26 12:32N 32°06' W 081°07'0 0.0
2016-Jun-26 11:32N 32°06' W 081°07'0 0.0
2016-Jun-26 10:32N 32°06' W 081°07'0 0.0
2016-Jun-26 09:33N 32°06' W 081°07'0 0.0
2016-Jun-26 08:33N 32°06' W 081°07'3 3.0
2016-Jun-26 07:33N 32°05' W 081°04'9 9.0
2016-Jun-26 06:33N 32°02' W 080°53'1212.1
2016-Jun-26 05:33N 31°58' W 080°40'2813.7
2016-Jun-26 03:29N 32°02' W 080°07'1314.0
2016-Jun-26 02:33N 32°04' W 079°52'1313.4
2016-Jun-26 01:33N 32°09' W 079°37'  
2016-Jun-18 23:31N 46°16' W 072°39'1614.0
2016-Jun-18 22:25N 46°07' W 072°58'1113.4
2016-Jun-18 21:33N 45°60' W 073°11'1414.4
2016-Jun-18 20:33N 45°47' W 073°21'1312.9
2016-Jun-18 19:33N 45°36' W 073°30'11 5.5
2016-Jun-18 17:33N 45°25' W 073°30'4 3.3
2016-Jun-18 16:28N 45°24' W 073°35'6 6.8
2016-Jun-18 15:33N 45°24' W 073°44'8 7.6
2016-Jun-18 14:33N 45°20' W 073°53'3 2.5
2016-Jun-18 13:33N 45°18' W 073°56'3 3.0
2016-Jun-18 12:33N 45°16' W 073°58'1411.1
2016-Jun-18 11:19N 45°13' W 074°17'11511.6
2016-Jun-18 01:25N 44°04' W 076°26'0 0.0
2016-Jun-18 00:34N 44°04' W 076°26'0 0.0
2016-Jun-17 23:34N 44°04' W 076°26'0 0.0
2016-Jun-17 22:34N 44°04' W 076°26'12213.2
2016-Jun-17 13:19N 43°20' W 079°03'912.1
2016-Jun-17 12:33N 43°15' W 079°13'3 2.8
2016-Jun-17 11:33N 43°12' W 079°12'2 2.0
2016-Jun-17 10:33N 43°10' W 079°12'2 1.5
2016-Jun-17 09:28N 43°08' W 079°12'0 0.3
2016-Jun-17 08:33N 43°08' W 079°12'1 0.6
2016-Jun-17 07:33N 43°07' W 079°12'  

Dump ship's entire track history